Time;durP1;ratioP1;P1;durP2;ratioP2;P2;SDS_P1;SDS_P2;PMS_P1;PMS_P2;Temp;Humidity;BMP_temperature;BMP_pressure;BME280_temperature;BME280_humidity;BME280_pressure;Samples;Min_cycle;Max_cycle;Signal;HPM_P1;HPM_P2
2023/04/08 00:01:47;;;;;;;;;;;18.00;49.60;;;;;;6196698;28;19913;-67
2023/04/08 00:04:47;;;;;;;;;;;18.00;49.70;;;;;;6178680;28;19917;-67
2023/04/08 00:07:48;;;;;;;;;;;18.00;49.70;;;;;;6179225;28;19914;-67
2023/04/08 00:10:49;;;;;;;;;;;18.00;49.70;;;;;;6196029;28;19910;-67
2023/04/08 00:13:50;;;;;;;;;;;18.10;49.70;;;;;;6196339;28;19910;-67
2023/04/08 00:16:50;;;;;;;;;;;18.00;49.70;;;;;;6178798;28;19917;-67
2023/04/08 00:19:51;;;;;;;;;;;18.00;49.70;;;;;;6178672;28;20483;-67
2023/04/08 00:22:52;;;;;;;;;;;18.00;49.70;;;;;;6196298;28;19910;-67
2023/04/08 00:25:52;;;;;;;;;;;18.10;49.80;;;;;;6195419;28;19928;-67
2023/04/08 00:28:53;;;;;;;;;;;18.00;50.40;;;;;;6195728;28;20431;-67
2023/04/08 00:31:54;;;;;;;;;;;18.00;49.70;;;;;;6177649;28;19913;-67
2023/04/08 00:34:55;;;;;;;;;;;18.00;49.80;;;;;;6171786;28;20018;-67
2023/04/08 00:37:55;;;;;;;;;;;18.10;49.90;;;;;;6195487;28;19914;-67
2023/04/08 00:40:57;;;;;;;;;;;18.00;49.60;;;;;;6195453;28;19960;-67
2023/04/08 00:43:57;;;;;;;;;;;18.00;49.80;;;;;;6195542;28;20421;-67
2023/04/08 00:46:58;;;;;;;;;;;18.00;49.70;;;;;;6194874;28;19914;-67
2023/04/08 00:49:58;;;;;;;;;;;18.00;49.80;;;;;;6195146;28;20008;-67
2023/04/08 00:52:59;;;;;;;;;;;18.00;49.80;;;;;;6177561;28;19909;-67
2023/04/08 00:56:00;;;;;;;;;;;18.00;49.70;;;;;;6195352;28;19957;-67
2023/04/08 00:59:01;;;;;;;;;;;18.00;49.80;;;;;;6177116;28;19929;-67
2023/04/08 01:02:06;;;;;;;;;;;18.00;49.70;;;;;;6195278;28;19910;-67
2023/04/08 01:05:27;;;;;;;;;;;18.00;49.80;;;;;;6194867;28;19913;-67
2023/04/08 01:08:30;;;;;;;;;;;18.00;49.60;;;;;;6123097;28;19914;-67
2023/04/08 01:11:33;;;;;;;;;;;18.00;49.90;;;;;;6179827;28;19921;-67
2023/04/08 01:14:35;;;;;;;;;;;18.00;49.90;;;;;;6177726;28;19997;-67
2023/04/08 01:17:36;;;;;;;;;;;18.00;49.80;;;;;;6194884;28;19909;-67
2023/04/08 01:20:37;;;;;;;;;;;18.00;49.80;;;;;;6195304;28;19910;-67
2023/04/08 01:23:41;;;;;;;;;;;18.00;49.70;;;;;;6194751;28;19949;-67
2023/04/08 01:26:42;;;;;;;;;;;18.00;49.90;;;;;;6194962;28;19914;-67
2023/04/08 01:29:44;;;;;;;;;;;18.00;49.80;;;;;;6194613;28;19916;-67
2023/04/08 01:32:46;;;;;;;;;;;18.00;49.90;;;;;;6193832;28;19910;-67
2023/04/08 01:35:47;;;;;;;;;;;18.00;49.90;;;;;;6180582;28;20362;-67
2023/04/08 01:38:48;;;;;;;;;;;18.00;49.80;;;;;;6170754;28;19917;-67
2023/04/08 01:41:49;;;;;;;;;;;18.00;49.90;;;;;;6176530;28;19972;-67
2023/04/08 01:44:52;;;;;;;;;;;18.00;49.80;;;;;;6196763;28;19913;-67
2023/04/08 01:47:54;;;;;;;;;;;18.00;50.60;;;;;;6199812;28;20587;-67
2023/04/08 01:50:55;;;;;;;;;;;18.00;49.90;;;;;;6199628;28;20442;-67
2023/04/08 01:53:56;;;;;;;;;;;18.00;49.80;;;;;;6181865;28;19914;-67
2023/04/08 01:56:57;;;;;;;;;;;18.00;49.90;;;;;;6182191;28;19969;-67
2023/04/08 02:03:56;;;;;;;;;;;18.00;49.90;;;;;;6174998;28;20401;-67
2023/04/08 02:06:59;;;;;;;;;;;18.00;49.90;;;;;;6169733;28;19968;-67
2023/04/08 02:10:02;;;;;;;;;;;18.00;49.90;;;;;;6173201;28;19911;-67
2023/04/08 02:13:06;;;;;;;;;;;18.00;49.90;;;;;;6172951;28;19917;-67
2023/04/08 02:16:15;;;;;;;;;;;18.00;49.90;;;;;;6174740;28;19953;-67
2023/04/08 02:19:26;;;;;;;;;;;18.00;49.80;;;;;;6145603;29;19914;-67
2023/04/08 02:22:36;;;;;;;;;;;18.00;49.90;;;;;;6155955;28;19917;-67
2023/04/08 02:25:40;;;;;;;;;;;18.00;50.00;;;;;;6146947;29;19915;-67
2023/04/08 02:28:43;;;;;;;;;;;18.00;49.90;;;;;;6149279;28;19961;-67
2023/04/08 02:31:47;;;;;;;;;;;18.00;49.90;;;;;;6174696;28;20119;-67
2023/04/08 02:34:51;;;;;;;;;;;18.00;49.90;;;;;;6138309;28;19977;-67
2023/04/08 02:37:54;;;;;;;;;;;18.00;50.00;;;;;;6157120;28;19910;-67
2023/04/08 02:40:57;;;;;;;;;;;18.00;49.60;;;;;;6173813;28;19921;-67
2023/04/08 02:43:59;;;;;;;;;;;18.00;49.90;;;;;;6173973;28;20000;-67
2023/04/08 02:47:03;;;;;;;;;;;18.00;49.90;;;;;;6173903;28;19914;-68
2023/04/08 02:50:06;;;;;;;;;;;18.00;50.00;;;;;;6150131;29;20416;-67
2023/04/08 02:53:09;;;;;;;;;;;18.00;49.90;;;;;;6141043;28;19914;-67
2023/04/08 02:56:11;;;;;;;;;;;18.00;50.50;;;;;;6155808;28;19921;-67
2023/04/08 02:59:13;;;;;;;;;;;18.00;49.90;;;;;;6173968;28;19910;-67
2023/04/08 03:02:17;;;;;;;;;;;18.00;49.80;;;;;;6193096;28;20385;-67
2023/04/08 03:05:20;;;;;;;;;;;18.00;49.90;;;;;;6172576;28;19914;-67
2023/04/08 03:08:22;;;;;;;;;;;18.00;49.90;;;;;;6180377;28;19926;-67
2023/04/08 03:11:25;;;;;;;;;;;18.00;49.90;;;;;;6196633;28;19910;-67
2023/04/08 03:14:27;;;;;;;;;;;18.00;49.70;;;;;;6170347;28;20032;-67
2023/04/08 03:17:32;;;;;;;;;;;18.00;49.90;;;;;;6172287;28;19917;-67
2023/04/08 03:20:34;;;;;;;;;;;18.00;49.90;;;;;;6178397;28;20364;-67
2023/04/08 03:23:36;;;;;;;;;;;18.00;49.90;;;;;;6170684;28;19949;-67
2023/04/08 03:26:37;;;;;;;;;;;18.00;49.90;;;;;;6154266;28;20017;-67
2023/04/08 03:29:39;;;;;;;;;;;18.00;50.00;;;;;;6187794;28;20405;-67
2023/04/08 03:32:41;;;;;;;;;;;18.00;50.00;;;;;;6196557;28;19910;-67
2023/04/08 03:35:43;;;;;;;;;;;18.00;49.90;;;;;;6175940;28;19937;-67
2023/04/08 03:38:46;;;;;;;;;;;18.00;49.90;;;;;;6172228;28;19961;-67
2023/04/08 03:41:47;;;;;;;;;;;18.00;50.00;;;;;;6171415;28;20405;-67
2023/04/08 03:44:49;;;;;;;;;;;18.00;50.00;;;;;;6178016;28;19914;-67
2023/04/08 03:47:51;;;;;;;;;;;18.00;49.80;;;;;;6194925;28;19914;-67
2023/04/08 03:50:54;;;;;;;;;;;18.00;50.00;;;;;;6194163;28;19964;-67
2023/04/08 03:53:57;;;;;;;;;;;18.00;50.00;;;;;;6177621;28;19910;-67
2023/04/08 03:56:59;;;;;;;;;;;18.00;50.00;;;;;;6195432;28;19921;-67
2023/04/08 04:00:05;;;;;;;;;;;18.00;50.00;;;;;;6075305;28;3437895;-67
2023/04/08 04:03:09;;;;;;;;;;;18.00;49.90;;;;;;6172205;28;19962;-67
2023/04/08 04:06:10;;;;;;;;;;;18.00;49.80;;;;;;6170825;28;20193;-67
2023/04/08 04:09:11;;;;;;;;;;;18.00;49.90;;;;;;6154598;28;19925;-67
2023/04/08 04:12:13;;;;;;;;;;;18.00;50.00;;;;;;6171669;28;19914;-67
2023/04/08 04:15:15;;;;;;;;;;;18.00;50.00;;;;;;6171567;28;19946;-67
2023/04/08 04:18:16;;;;;;;;;;;18.00;50.10;;;;;;6154268;28;20329;-67
2023/04/08 04:21:18;;;;;;;;;;;18.00;50.00;;;;;;6171583;28;19917;-67
2023/04/08 04:24:19;;;;;;;;;;;18.00;49.90;;;;;;6170805;28;20004;-67
2023/04/08 04:27:21;;;;;;;;;;;18.00;50.10;;;;;;6153792;28;19918;-67
2023/04/08 04:30:23;;;;;;;;;;;18.00;49.80;;;;;;6154049;28;19937;-67
2023/04/08 04:33:27;;;;;;;;;;;18.00;49.90;;;;;;6171251;28;19910;-67
2023/04/08 04:36:30;;;;;;;;;;;18.00;50.00;;;;;;6170990;28;19956;-67
2023/04/08 04:39:34;;;;;;;;;;;18.00;50.00;;;;;;6171022;28;20016;-67
2023/04/08 04:42:35;;;;;;;;;;;18.00;50.00;;;;;;6171626;28;19921;-67
2023/04/08 04:45:36;;;;;;;;;;;18.00;50.00;;;;;;6170616;28;19918;-67
2023/04/08 04:48:39;;;;;;;;;;;18.00;50.70;;;;;;6171190;28;19910;-67
2023/04/08 04:51:42;;;;;;;;;;;18.00;49.90;;;;;;6171045;28;19910;-67
2023/04/08 04:54:46;;;;;;;;;;;18.00;50.00;;;;;;6171451;28;19910;-67
2023/04/08 04:57:48;;;;;;;;;;;18.00;50.00;;;;;;6171056;28;19917;-67
2023/04/08 05:00:50;;;;;;;;;;;18.00;49.80;;;;;;6153088;28;20417;-67
2023/04/08 05:04:01;;;;;;;;;;;18.00;49.90;;;;;;6195120;28;19918;-67
2023/04/08 05:07:07;;;;;;;;;;;18.00;49.90;;;;;;6177219;28;19918;-67
2023/04/08 05:10:12;;;;;;;;;;;18.00;49.90;;;;;;6189910;28;19917;-67
2023/04/08 05:13:23;;;;;;;;;;;18.00;49.90;;;;;;6194452;28;19914;-67
2023/04/08 05:16:30;;;;;;;;;;;18.00;50.00;;;;;;6176784;28;19910;-67
2023/04/08 05:19:46;;;;;;;;;;;18.00;49.90;;;;;;6177161;28;19909;-67
2023/04/08 05:23:09;;;;;;;;;;;18.00;49.90;;;;;;6190898;28;19917;-67
2023/04/08 05:26:14;;;;;;;;;;;18.00;50.00;;;;;;6191974;28;19914;-67
2023/04/08 05:29:28;;;;;;;;;;;18.00;49.90;;;;;;6194986;28;19925;-67
2023/04/08 05:32:35;;;;;;;;;;;18.00;50.10;;;;;;6190897;28;19957;-67
2023/04/08 05:36:02;;;;;;;;;;;18.00;49.90;;;;;;6194706;28;20451;-67
2023/04/08 05:39:18;;;;;;;;;;;18.00;50.00;;;;;;6176922;28;20004;-67
2023/04/08 05:42:27;;;;;;;;;;;18.00;50.00;;;;;;6194745;28;20254;-67
2023/04/08 05:45:46;;;;;;;;;;;18.00;50.00;;;;;;6193169;28;19935;-67
2023/04/08 05:48:48;;;;;;;;;;;18.00;49.90;;;;;;6176905;28;19920;-67
2023/04/08 05:52:02;;;;;;;;;;;18.00;50.00;;;;;;6168947;28;20329;-67
2023/04/08 05:55:09;;;;;;;;;;;18.00;49.90;;;;;;6153042;28;19910;-67
2023/04/08 05:58:16;;;;;;;;;;;18.00;50.00;;;;;;6153394;28;19953;-67
2023/04/08 06:01:24;;;;;;;;;;;18.00;50.00;;;;;;6161402;28;20396;-67
2023/04/08 06:04:27;;;;;;;;;;;18.00;49.90;;;;;;6194541;28;19921;-67
2023/04/08 06:07:32;;;;;;;;;;;18.00;50.00;;;;;;6194513;28;19921;-67
2023/04/08 06:10:35;;;;;;;;;;;18.00;49.90;;;;;;6176988;28;19910;-67
2023/04/08 06:13:38;;;;;;;;;;;18.00;49.90;;;;;;6194056;28;19914;-67
2023/04/08 06:16:47;;;;;;;;;;;18.00;50.00;;;;;;6168902;28;20000;-67
2023/04/08 06:19:54;;;;;;;;;;;18.00;50.00;;;;;;6170015;28;19914;-67
2023/04/08 06:23:00;;;;;;;;;;;18.00;50.00;;;;;;6171639;28;19913;-67
2023/04/08 06:26:03;;;;;;;;;;;18.00;50.00;;;;;;6194605;28;20259;-67
2023/04/08 06:29:06;;;;;;;;;;;18.00;50.00;;;;;;6194164;28;20009;-67
2023/04/08 06:32:10;;;;;;;;;;;18.00;49.90;;;;;;6198471;28;19957;-67
2023/04/08 06:35:13;;;;;;;;;;;18.00;50.00;;;;;;6189532;28;20424;-67
2023/04/08 06:38:16;;;;;;;;;;;18.00;50.00;;;;;;6176198;28;20396;-67
2023/04/08 06:41:18;;;;;;;;;;;18.00;50.00;;;;;;6198319;28;19910;-67
2023/04/08 06:44:21;;;;;;;;;;;18.00;50.00;;;;;;6180254;28;20373;-67
2023/04/08 06:47:24;;;;;;;;;;;18.00;50.00;;;;;;6198035;28;19913;-67
2023/04/08 06:50:28;;;;;;;;;;;18.00;49.90;;;;;;6198042;28;19956;-67
2023/04/08 06:53:31;;;;;;;;;;;18.00;50.00;;;;;;6197571;28;20487;-67
2023/04/08 06:56:34;;;;;;;;;;;18.00;50.00;;;;;;6196169;28;19989;-67
2023/04/08 06:59:38;;;;;;;;;;;18.00;50.00;;;;;;6197870;28;20005;-67
2023/04/08 07:02:40;;;;;;;;;;;18.00;50.00;;;;;;6196964;28;20021;-67
2023/04/08 07:05:45;;;;;;;;;;;18.00;50.00;;;;;;6197528;28;19917;-67
2023/04/08 07:08:47;;;;;;;;;;;18.00;49.80;;;;;;6180077;28;19910;-67
2023/04/08 07:11:50;;;;;;;;;;;18.00;50.00;;;;;;6197208;28;20008;-67
2023/04/08 07:14:53;;;;;;;;;;;18.00;50.10;;;;;;6197143;28;19910;-67
2023/04/08 07:17:56;;;;;;;;;;;18.00;50.00;;;;;;6196732;28;20365;-67
2023/04/08 07:20:59;;;;;;;;;;;18.00;50.10;;;;;;6180009;28;19921;-67
2023/04/08 07:24:01;;;;;;;;;;;18.00;50.10;;;;;;6196747;28;19910;-67
2023/04/08 07:27:03;;;;;;;;;;;18.00;50.00;;;;;;6197252;28;20017;-67
2023/04/08 07:30:05;;;;;;;;;;;18.00;50.00;;;;;;6179238;28;20011;-67
2023/04/08 07:33:07;;;;;;;;;;;18.00;50.10;;;;;;6196746;28;19921;-67
2023/04/08 07:36:09;;;;;;;;;;;18.00;50.10;;;;;;6197040;28;20361;-67
2023/04/08 07:39:10;;;;;;;;;;;18.00;50.00;;;;;;6196855;28;19916;-67
2023/04/08 07:42:12;;;;;;;;;;;18.00;50.10;;;;;;6195633;28;20008;-67
2023/04/08 07:45:14;;;;;;;;;;;18.00;50.00;;;;;;6196491;28;19962;-67
2023/04/08 07:48:15;;;;;;;;;;;18.00;50.20;;;;;;6171204;28;19914;-67
2023/04/08 07:51:16;;;;;;;;;;;18.00;50.10;;;;;;6180164;28;19941;-67
2023/04/08 07:54:18;;;;;;;;;;;18.00;50.10;;;;;;6196156;28;19910;-67
2023/04/08 07:57:20;;;;;;;;;;;18.00;50.10;;;;;;6196483;28;19910;-67
2023/04/08 08:00:20;;;;;;;;;;;18.00;49.90;;;;;;6195095;28;19921;-67
2023/04/08 08:03:21;;;;;;;;;;;18.00;50.00;;;;;;6175351;28;19922;-67
2023/04/08 08:06:22;;;;;;;;;;;18.00;50.00;;;;;;6172047;28;20001;-67
2023/04/08 08:09:23;;;;;;;;;;;18.00;50.10;;;;;;6171986;28;19958;-67
2023/04/08 08:12:25;;;;;;;;;;;18.00;50.00;;;;;;6171396;28;19914;-67
2023/04/08 08:15:25;;;;;;;;;;;18.00;50.10;;;;;;6171683;28;19914;-67
2023/04/08 08:18:27;;;;;;;;;;;18.00;50.00;;;;;;6172203;28;19914;-67
2023/04/08 08:21:28;;;;;;;;;;;18.00;50.00;;;;;;6172031;28;19914;-67
2023/04/08 08:24:29;;;;;;;;;;;18.00;50.10;;;;;;6171597;28;19910;-67
2023/04/08 08:27:33;;;;;;;;;;;18.00;50.10;;;;;;6171950;28;20394;-67
2023/04/08 08:30:33;;;;;;;;;;;18.00;50.00;;;;;;6153938;28;19917;-67
2023/04/08 08:33:34;;;;;;;;;;;18.00;50.10;;;;;;6171092;28;19914;-67
2023/04/08 08:36:36;;;;;;;;;;;18.00;50.20;;;;;;6151446;28;19910;-67
2023/04/08 08:39:37;;;;;;;;;;;18.00;50.10;;;;;;6161758;28;19910;-67
2023/04/08 08:42:39;;;;;;;;;;;18.00;50.20;;;;;;6171593;28;19910;-67
2023/04/08 08:45:40;;;;;;;;;;;18.00;50.20;;;;;;6170833;28;19914;-67
2023/04/08 08:48:43;;;;;;;;;;;18.00;50.20;;;;;;6171517;28;19918;-67
2023/04/08 08:51:47;;;;;;;;;;;18.00;50.10;;;;;;6170921;28;20010;-67
2023/04/08 08:54:56;;;;;;;;;;;18.00;50.10;;;;;;6145478;29;20005;-67
2023/04/08 08:57:57;;;;;;;;;;;18.00;50.20;;;;;;6146883;29;19911;-67
2023/04/08 09:00:58;;;;;;;;;;;18.00;50.20;;;;;;6152442;28;19910;-67
2023/04/08 09:04:09;;;;;;;;;;;18.00;50.20;;;;;;6170627;28;20336;-67
2023/04/08 09:07:12;;;;;;;;;;;18.00;50.10;;;;;;6153131;28;19990;-67
2023/04/08 09:10:14;;;;;;;;;;;18.00;50.20;;;;;;6171098;28;19917;-67
2023/04/08 09:13:16;;;;;;;;;;;18.00;50.10;;;;;;6170768;28;20015;-67
2023/04/08 09:16:18;;;;;;;;;;;18.00;50.20;;;;;;6170981;28;19910;-67
2023/04/08 09:19:19;;;;;;;;;;;18.00;50.10;;;;;;6153170;28;19910;-67
2023/04/08 09:22:21;;;;;;;;;;;18.00;49.90;;;;;;6153437;28;19961;-67
2023/04/08 09:25:26;;;;;;;;;;;18.00;50.20;;;;;;6170216;28;19957;-68
2023/04/08 09:28:27;;;;;;;;;;;18.00;50.10;;;;;;6170709;28;19918;-67
2023/04/08 09:31:29;;;;;;;;;;;18.00;50.10;;;;;;6170533;28;19996;-67
2023/04/08 09:34:32;;;;;;;;;;;18.00;50.20;;;;;;6170469;28;19910;-67
2023/04/08 09:37:34;;;;;;;;;;;18.00;50.10;;;;;;6170304;28;19914;-67
2023/04/08 09:40:36;;;;;;;;;;;18.00;50.10;;;;;;6170898;28;19953;-67
2023/04/08 09:43:41;;;;;;;;;;;18.00;50.00;;;;;;6170066;28;19921;-67
2023/04/08 09:46:53;;;;;;;;;;;18.00;50.00;;;;;;6170383;28;20052;-68
2023/04/08 09:49:57;;;;;;;;;;;18.00;50.10;;;;;;6168891;28;19953;-67
2023/04/08 09:53:09;;;;;;;;;;;18.00;50.10;;;;;;6170167;28;19910;-67
2023/04/08 09:56:11;;;;;;;;;;;18.00;50.10;;;;;;6169830;28;19957;-68
2023/04/08 09:59:17;;;;;;;;;;;18.00;50.10;;;;;;6170038;28;19910;-68
2023/04/08 10:02:24;;;;;;;;;;;18.00;49.90;;;;;;6170159;28;19985;-67
2023/04/08 10:05:26;;;;;;;;;;;18.00;50.00;;;;;;6172653;28;19969;-67
2023/04/08 10:08:28;;;;;;;;;;;18.00;50.00;;;;;;6173485;28;19918;-68
2023/04/08 10:11:30;;;;;;;;;;;18.00;50.10;;;;;;6174505;28;19914;-68
2023/04/08 10:14:31;;;;;;;;;;;18.00;50.10;;;;;;6174272;28;20598;-67
2023/04/08 10:17:35;;;;;;;;;;;18.00;50.00;;;;;;6157501;28;20281;-68
2023/04/08 10:20:36;;;;;;;;;;;18.00;50.00;;;;;;6174620;28;20396;-67
2023/04/08 10:24:06;;;;;;;;;;;18.00;50.00;;;;;;6174574;28;19942;-67
2023/04/08 10:27:24;;;;;;;;;;;18.00;50.00;;;;;;6171556;28;19918;-67
2023/04/08 10:30:28;;;;;;;;;;;18.00;50.20;;;;;;6174698;28;19914;-68
2023/04/08 10:33:28;;;;;;;;;;;18.00;49.90;;;;;;6166935;28;19926;-68
2023/04/08 10:36:30;;;;;;;;;;;18.00;49.90;;;;;;6170804;28;19914;-68
2023/04/08 10:39:30;;;;;;;;;;;18.00;50.10;;;;;;6154737;28;19922;-68
2023/04/08 10:42:31;;;;;;;;;;;18.00;49.80;;;;;;6155460;28;19918;-69
2023/04/08 10:45:31;;;;;;;;;;;18.00;49.70;;;;;;6163861;28;20360;-69
2023/04/08 10:48:32;;;;;;;;;;;18.00;49.90;;;;;;6173141;28;19911;-68
2023/04/08 10:51:33;;;;;;;;;;;18.00;49.90;;;;;;6155521;28;19910;-68
2023/04/08 10:54:35;;;;;;;;;;;18.00;50.00;;;;;;6172897;28;19910;-69
2023/04/08 10:57:36;;;;;;;;;;;18.00;49.90;;;;;;6172333;28;19958;-69
2023/04/08 11:00:37;;;;;;;;;;;18.00;50.00;;;;;;6155011;28;19910;-69
2023/04/08 11:03:38;;;;;;;;;;;18.00;50.10;;;;;;6195384;28;19926;-69
2023/04/08 11:06:38;;;;;;;;;;;18.00;50.10;;;;;;6195837;28;20423;-69
2023/04/08 11:09:41;;;;;;;;;;;18.00;50.80;;;;;;6179092;28;19914;-68
2023/04/08 11:12:42;;;;;;;;;;;18.00;50.00;;;;;;6195125;28;19914;-68
2023/04/08 11:15:42;;;;;;;;;;;18.00;50.10;;;;;;6194918;28;20387;-68
2023/04/08 11:18:44;;;;;;;;;;;18.00;50.20;;;;;;6178603;28;19961;-68
2023/04/08 11:21:45;;;;;;;;;;;18.00;50.10;;;;;;6195594;28;19913;-68
2023/04/08 11:24:46;;;;;;;;;;;18.00;50.20;;;;;;6196232;28;20568;-68
2023/04/08 11:27:47;;;;;;;;;;;18.00;50.20;;;;;;6194707;28;19964;-68
2023/04/08 11:30:48;;;;;;;;;;;18.00;50.20;;;;;;6195682;28;19916;-68
2023/04/08 11:33:51;;;;;;;;;;;18.00;50.20;;;;;;6195809;28;20558;-68
2023/04/08 11:36:52;;;;;;;;;;;18.00;50.30;;;;;;6177698;28;19929;-68
2023/04/08 11:39:54;;;;;;;;;;;18.00;50.20;;;;;;6195005;28;20447;-68
2023/04/08 11:42:55;;;;;;;;;;;18.00;50.20;;;;;;6177843;28;20004;-68
2023/04/08 11:45:56;;;;;;;;;;;18.00;50.40;;;;;;6194663;28;19924;-69
2023/04/08 11:49:00;;;;;;;;;;;18.00;50.30;;;;;;6194940;28;19921;-68
2023/04/08 11:52:01;;;;;;;;;;;18.00;50.30;;;;;;6193744;28;19951;-68
2023/04/08 11:55:03;;;;;;;;;;;18.00;50.30;;;;;;6187242;28;19910;-68
2023/04/08 11:58:04;;;;;;;;;;;18.00;50.30;;;;;;6194535;28;20436;-68
2023/04/08 12:01:05;;;;;;;;;;;18.00;50.20;;;;;;6194533;28;20297;-68
2023/04/08 12:04:09;;;;;;;;;;;18.00;50.30;;;;;;6195028;28;19917;-68
2023/04/08 12:07:09;;;;;;;;;;;18.00;50.40;;;;;;6193769;28;19913;-68
2023/04/08 12:10:10;;;;;;;;;;;18.00;50.40;;;;;;6177589;28;20312;-68
2023/04/08 12:13:11;;;;;;;;;;;18.00;50.50;;;;;;6194669;28;19914;-68
2023/04/08 12:16:11;;;;;;;;;;;18.00;50.40;;;;;;6192864;28;19914;-68
2023/04/08 12:19:12;;;;;;;;;;;18.00;50.40;;;;;;6195036;28;19996;-68
2023/04/08 12:22:12;;;;;;;;;;;18.00;50.50;;;;;;6193613;28;20013;-67
2023/04/08 12:25:13;;;;;;;;;;;18.00;50.40;;;;;;6201479;28;20159;-68
2023/04/08 12:28:13;;;;;;;;;;;18.00;50.50;;;;;;6201300;28;20448;-67
2023/04/08 12:31:14;;;;;;;;;;;18.00;50.50;;;;;;6177328;28;19960;-67
2023/04/08 12:34:15;;;;;;;;;;;18.00;50.50;;;;;;6192741;28;19910;-67
2023/04/08 12:37:16;;;;;;;;;;;18.00;50.50;;;;;;6159832;28;20012;-67
2023/04/08 12:40:18;;;;;;;;;;;18.00;50.50;;;;;;6194193;28;19977;-66
2023/04/08 12:43:18;;;;;;;;;;;18.00;50.50;;;;;;6193523;28;20024;-67
2023/04/08 12:46:19;;;;;;;;;;;18.10;50.70;;;;;;6193795;28;20416;-67
2023/04/08 12:49:20;;;;;;;;;;;18.10;50.40;;;;;;6176335;28;19963;-67
2023/04/08 12:52:20;;;;;;;;;;;18.10;50.80;;;;;;6190445;28;19917;-67
2023/04/08 12:55:23;;;;;;;;;;;18.10;50.70;;;;;;6193939;28;19950;-67
2023/04/08 12:58:24;;;;;;;;;;;18.10;51.30;;;;;;6193619;28;20000;-67
2023/04/08 13:01:25;;;;;;;;;;;18.10;50.60;;;;;;6193911;28;19922;-68
2023/04/08 13:04:25;;;;;;;;;;;18.10;50.70;;;;;;6193593;28;19960;-68
2023/04/08 13:07:26;;;;;;;;;;;18.10;50.60;;;;;;6193122;28;19914;-68
2023/04/08 13:10:26;;;;;;;;;;;18.10;50.50;;;;;;6176160;28;19949;-68
2023/04/08 13:13:27;;;;;;;;;;;18.20;50.40;;;;;;6193141;28;19968;-68
2023/04/08 13:16:28;;;;;;;;;;;18.20;50.20;;;;;;6175807;28;19910;-68
2023/04/08 13:19:29;;;;;;;;;;;18.20;50.60;;;;;;6191942;28;19910;-68
2023/04/08 13:22:30;;;;;;;;;;;18.20;50.60;;;;;;6192182;28;19913;-68
2023/04/08 13:25:30;;;;;;;;;;;18.10;50.40;;;;;;6193197;28;20489;-68
2023/04/08 13:28:31;;;;;;;;;;;18.20;50.70;;;;;;6192686;28;20296;-68
2023/04/08 13:31:31;;;;;;;;;;;18.10;50.70;;;;;;6193397;28;19921;-68
2023/04/08 13:34:32;;;;;;;;;;;18.10;50.70;;;;;;6194576;28;19914;-68
2023/04/08 13:37:32;;;;;;;;;;;18.10;50.70;;;;;;6193128;28;19910;-68
2023/04/08 13:40:33;;;;;;;;;;;18.10;50.70;;;;;;6180298;28;20000;-68
2023/04/08 13:43:34;;;;;;;;;;;18.10;50.70;;;;;;6185062;28;19921;-67
2023/04/08 13:46:35;;;;;;;;;;;18.10;50.80;;;;;;6199352;28;20349;-67
2023/04/08 13:49:35;;;;;;;;;;;18.10;50.80;;;;;;6173662;28;19914;-67
2023/04/08 13:52:36;;;;;;;;;;;18.10;50.80;;;;;;6175828;28;19910;-67
2023/04/08 13:55:37;;;;;;;;;;;18.10;50.80;;;;;;6178729;28;20280;-67
2023/04/08 13:58:37;;;;;;;;;;;18.10;50.90;;;;;;6199461;28;20088;-68
2023/04/08 14:01:39;;;;;;;;;;;18.10;50.90;;;;;;6198890;28;19929;-67
2023/04/08 14:04:40;;;;;;;;;;;18.10;50.90;;;;;;6181533;28;19913;-67
2023/04/08 14:07:40;;;;;;;;;;;18.10;50.90;;;;;;6199212;28;20486;-67
2023/04/08 14:10:41;;;;;;;;;;;18.10;50.90;;;;;;6198924;28;19920;-67
2023/04/08 14:13:41;;;;;;;;;;;18.10;51.60;;;;;;6198409;28;19917;-67
2023/04/08 14:16:43;;;;;;;;;;;18.10;50.90;;;;;;6199097;28;19910;-67
2023/04/08 14:19:44;;;;;;;;;;;18.10;50.90;;;;;;6181249;28;19916;-67
2023/04/08 14:22:45;;;;;;;;;;;18.10;50.90;;;;;;6198082;28;20289;-67
2023/04/08 14:25:45;;;;;;;;;;;18.10;50.90;;;;;;6198077;28;19910;-67
2023/04/08 14:28:49;;;;;;;;;;;18.10;51.60;;;;;;6198566;28;20466;-67
2023/04/08 14:31:50;;;;;;;;;;;18.10;50.90;;;;;;6198384;28;19914;-67
2023/04/08 14:34:51;;;;;;;;;;;18.10;50.90;;;;;;6197867;28;19914;-67
2023/04/08 14:37:51;;;;;;;;;;;18.10;50.90;;;;;;6198592;28;19914;-67
2023/04/08 14:40:53;;;;;;;;;;;18.10;50.90;;;;;;6180748;28;19914;-67
2023/04/08 14:43:54;;;;;;;;;;;18.10;50.80;;;;;;6180727;28;19960;-67
2023/04/08 14:46:54;;;;;;;;;;;18.10;50.90;;;;;;6180536;28;19945;-67
2023/04/08 14:49:55;;;;;;;;;;;18.10;51.00;;;;;;6197696;28;20361;-67
2023/04/08 14:52:56;;;;;;;;;;;18.10;50.90;;;;;;6197885;28;19916;-67
2023/04/08 14:55:56;;;;;;;;;;;18.10;51.00;;;;;;6172696;28;19916;-67
2023/04/08 14:58:57;;;;;;;;;;;18.10;51.00;;;;;;6173753;28;19916;-67
2023/04/08 15:01:57;;;;;;;;;;;18.10;51.00;;;;;;6187570;28;19999;-67
2023/04/08 15:04:58;;;;;;;;;;;18.10;50.90;;;;;;6173449;28;19910;-67
2023/04/08 15:07:58;;;;;;;;;;;18.10;50.90;;;;;;6173388;28;20258;-67
2023/04/08 15:10:59;;;;;;;;;;;18.10;51.00;;;;;;6173692;28;19910;-67
2023/04/08 15:14:00;;;;;;;;;;;18.10;51.00;;;;;;6173645;28;19938;-67
2023/04/08 15:17:00;;;;;;;;;;;18.00;50.90;;;;;;6173260;28;20400;-67
2023/04/08 15:20:01;;;;;;;;;;;18.10;51.00;;;;;;6173606;28;19944;-67
2023/04/08 15:23:02;;;;;;;;;;;18.10;51.00;;;;;;6155906;28;20054;-67
2023/04/08 15:26:02;;;;;;;;;;;18.00;50.90;;;;;;6155487;28;19929;-67
2023/04/08 15:29:03;;;;;;;;;;;18.10;50.70;;;;;;6155560;28;20000;-67
2023/04/08 15:32:03;;;;;;;;;;;18.10;51.00;;;;;;6173034;28;19910;-67
2023/04/08 15:35:05;;;;;;;;;;;18.00;50.90;;;;;;6172958;28;19965;-67
2023/04/08 15:38:06;;;;;;;;;;;18.10;50.90;;;;;;6173021;28;19914;-67
2023/04/08 15:41:13;;;;;;;;;;;18.00;50.90;;;;;;6173104;28;19917;-67
2023/04/08 15:44:14;;;;;;;;;;;18.00;50.90;;;;;;6173059;28;19929;-67
2023/04/08 15:47:15;;;;;;;;;;;18.10;51.00;;;;;;6172378;28;20585;-67
2023/04/08 15:50:16;;;;;;;;;;;18.00;50.90;;;;;;6155551;28;19910;-67
2023/04/08 15:53:16;;;;;;;;;;;18.10;51.00;;;;;;6172500;28;19958;-67
2023/04/08 15:56:18;;;;;;;;;;;18.00;50.90;;;;;;6172489;28;19954;-67
2023/04/08 15:59:19;;;;;;;;;;;18.00;50.90;;;;;;6172300;28;20270;-67
2023/04/08 16:02:19;;;;;;;;;;;18.00;50.90;;;;;;6166319;28;19929;-67
2023/04/08 16:05:20;;;;;;;;;;;18.10;50.90;;;;;;6196049;28;19910;-67
2023/04/08 16:08:22;;;;;;;;;;;18.00;50.90;;;;;;6196799;28;19918;-67
2023/04/08 16:11:24;;;;;;;;;;;18.00;51.00;;;;;;6196369;28;19910;-67
2023/04/08 16:14:24;;;;;;;;;;;18.00;50.90;;;;;;6196306;28;20320;-67
2023/04/08 16:17:26;;;;;;;;;;;18.00;50.90;;;;;;6196199;28;19917;-67
2023/04/08 16:20:27;;;;;;;;;;;18.00;51.60;;;;;;6196024;28;19914;-67
2023/04/08 16:23:28;;;;;;;;;;;18.00;51.00;;;;;;6178254;28;19972;-67
2023/04/08 16:26:28;;;;;;;;;;;18.00;50.90;;;;;;6195941;28;19918;-67
2023/04/08 16:29:29;;;;;;;;;;;18.10;51.00;;;;;;6196004;28;19921;-67
2023/04/08 16:32:30;;;;;;;;;;;18.00;51.00;;;;;;6195781;28;19914;-67
2023/04/08 16:35:31;;;;;;;;;;;18.10;51.10;;;;;;6195767;28;19925;-67
2023/04/08 16:38:31;;;;;;;;;;;18.10;51.10;;;;;;6195423;28;19925;-67
2023/04/08 16:41:32;;;;;;;;;;;18.00;51.00;;;;;;6195596;28;19920;-67
2023/04/08 16:44:33;;;;;;;;;;;18.00;51.00;;;;;;6195470;28;19921;-67
2023/04/08 16:47:33;;;;;;;;;;;18.00;51.10;;;;;;6195265;28;19925;-67
2023/04/08 16:50:36;;;;;;;;;;;18.10;51.10;;;;;;6195164;28;19993;-67
2023/04/08 16:53:37;;;;;;;;;;;18.00;51.00;;;;;;6169767;28;19914;-67
2023/04/08 16:56:42;;;;;;;;;;;18.00;51.00;;;;;;6158850;28;19917;-67
2023/04/08 16:59:43;;;;;;;;;;;18.00;51.00;;;;;;6170017;28;20307;-67
2023/04/08 17:02:44;;;;;;;;;;;18.00;51.00;;;;;;6165443;28;19929;-67
2023/04/08 17:05:45;;;;;;;;;;;18.00;51.00;;;;;;6190046;28;19910;-67
2023/04/08 17:08:46;;;;;;;;;;;18.00;51.00;;;;;;6193245;28;20400;-67
2023/04/08 17:11:46;;;;;;;;;;;18.00;51.00;;;;;;6194787;28;19910;-67
2023/04/08 17:14:47;;;;;;;;;;;18.00;51.00;;;;;;6177447;28;19961;-67
2023/04/08 17:17:47;;;;;;;;;;;18.00;51.10;;;;;;6195060;28;19909;-67
2023/04/08 17:20:48;;;;;;;;;;;18.00;51.00;;;;;;6194344;28;19910;-67
2023/04/08 17:23:50;;;;;;;;;;;18.00;51.00;;;;;;6177412;28;19910;-67
2023/04/08 17:26:51;;;;;;;;;;;18.00;51.10;;;;;;6194467;28;20004;-67
2023/04/08 17:29:56;;;;;;;;;;;18.00;51.00;;;;;;6177436;28;19913;-68
2023/04/08 17:32:56;;;;;;;;;;;18.00;51.00;;;;;;6185245;28;19924;-68
2023/04/08 17:35:57;;;;;;;;;;;18.10;51.10;;;;;;6194047;28;19914;-68
2023/04/08 17:38:58;;;;;;;;;;;18.00;51.10;;;;;;6175781;28;19910;-68
2023/04/08 17:41:58;;;;;;;;;;;18.00;51.10;;;;;;6194184;28;19910;-68
2023/04/08 17:45:00;;;;;;;;;;;18.00;51.10;;;;;;6193814;28;19976;-68